Time;durP1;ratioP1;P1;durP2;ratioP2;P2;SDS_P1;SDS_P2;PMS_P1;PMS_P2;Temp;Humidity;BMP_temperature;BMP_pressure;BME280_temperature;BME280_humidity;BME280_pressure;Samples;Min_cycle;Max_cycle;Signal;HPM_P1;HPM_P2
2023/01/21 00:00:41;;;;;;;24.83;14.05;;;;;;;;;;5094159;28;20082;-89
2023/01/21 00:03:11;;;;;;;27.95;16.30;;;;;;;;;;5094191;28;20101;-88
2023/01/21 00:05:39;;;;;;;27.13;15.15;;;;;;;;;;5094927;28;20047;-89
2023/01/21 00:08:06;;;;;;;29.95;17.42;;;;;;;;;;5094266;28;20087;-89
2023/01/21 00:10:33;;;;;;;29.77;16.05;;;;;;;;;;5094225;28;20048;-89
2023/01/21 00:13:01;;;;;;;33.97;17.45;;;;;;;;;;5094108;28;20055;-89
2023/01/21 00:15:28;;;;;;;27.48;16.38;;;;;;;;;;5093075;28;20052;-89
2023/01/21 00:17:55;;;;;;;24.55;15.80;;;;;;;;;;5093907;28;20097;-89
2023/01/21 00:20:23;;;;;;;28.80;16.05;;;;;;;;;;5094047;28;20054;-90
2023/01/21 00:22:52;;;;;;;25.65;14.75;;;;;;;;;;5094985;28;20044;-89
2023/01/21 00:25:20;;;;;;;22.92;14.35;;;;;;;;;;5093876;28;20040;-89
2023/01/21 00:27:47;;;;;;;25.63;15.27;;;;;;;;;;5093611;28;20052;-90
2023/01/21 00:30:14;;;;;;;29.48;15.82;;;;;;;;;;5093867;28;20071;-89
2023/01/21 00:32:42;;;;;;;28.92;18.15;;;;;;;;;;5093404;28;20056;-89
2023/01/21 00:35:09;;;;;;;23.42;14.27;;;;;;;;;;5094339;28;20423;-89
2023/01/21 00:37:36;;;;;;;25.27;14.60;;;;;;;;;;5093683;28;20087;-89
2023/01/21 00:40:04;;;;;;;26.88;15.20;;;;;;;;;;5093799;28;20040;-89
2023/01/21 00:42:32;;;;;;;25.27;15.20;;;;;;;;;;5093453;28;20052;-89
2023/01/21 00:44:59;;;;;;;27.88;15.88;;;;;;;;;;5093371;28;20054;-89
2023/01/21 00:47:27;;;;;;;28.45;15.80;;;;;;;;;;5093017;28;20483;-90
2023/01/21 00:49:54;;;;;;;25.90;15.70;;;;;;;;;;5093406;28;20044;-90
2023/01/21 00:52:21;;;;;;;26.50;14.40;;;;;;;;;;5092793;28;20048;-90
2023/01/21 00:54:49;;;;;;;27.63;15.90;;;;;;;;;;5092962;28;20488;-89
2023/01/21 00:57:16;;;;;;;25.45;14.88;;;;;;;;;;5094085;28;20059;-89
2023/01/21 00:59:43;;;;;;;26.83;15.45;;;;;;;;;;5094240;28;20075;-89
2023/01/21 01:02:10;;;;;;;29.60;15.02;;;;;;;;;;5094387;28;20495;-90
2023/01/21 01:04:37;;;;;;;24.92;15.50;;;;;;;;;;5093153;28;20373;-89
2023/01/21 01:07:05;;;;;;;30.95;16.33;;;;;;;;;;5093278;28;20426;-90
2023/01/21 01:09:32;;;;;;;27.20;14.85;;;;;;;;;;5094370;28;20461;-89
2023/01/21 01:11:59;;;;;;;23.45;13.82;;;;;;;;;;5094158;28;20130;-90
2023/01/21 01:14:26;;;;;;;26.95;15.85;;;;;;;;;;5093808;28;20377;-90
2023/01/21 01:16:54;;;;;;;28.42;16.40;;;;;;;;;;5093004;28;20052;-90
2023/01/21 01:19:21;;;;;;;25.25;16.13;;;;;;;;;;5092998;28;20048;-89
2023/01/21 01:21:48;;;;;;;26.33;15.82;;;;;;;;;;5093097;28;20055;-89
2023/01/21 01:24:16;;;;;;;33.13;16.92;;;;;;;;;;5092785;28;20490;-89
2023/01/21 01:26:43;;;;;;;31.35;16.85;;;;;;;;;;5091663;28;20069;-90
2023/01/21 01:29:12;;;;;;;23.65;15.48;;;;;;;;;;5093003;28;20040;-89
2023/01/21 01:31:39;;;;;;;29.42;17.05;;;;;;;;;;5093694;28;20055;-90
2023/01/21 01:34:06;;;;;;;31.30;18.63;;;;;;;;;;5093692;28;20509;-90
2023/01/21 01:36:34;;;;;;;35.85;18.20;;;;;;;;;;5092566;28;20062;-90
2023/01/21 01:39:01;;;;;;;33.33;19.08;;;;;;;;;;5092727;28;20048;-90
2023/01/21 01:41:29;;;;;;;29.40;17.85;;;;;;;;;;5092587;28;20055;-90
2023/01/21 01:43:59;;;;;;;31.60;18.55;;;;;;;;;;5092530;28;20044;-90
2023/01/21 01:46:31;;;;;;;34.80;22.48;;;;;;;;;;5092351;28;20413;-90
2023/01/21 01:49:01;;;;;;;38.88;20.35;;;;;;;;;;5092739;28;20079;-89
2023/01/21 01:51:32;;;;;;;37.97;20.98;;;;;;;;;;5092458;28;20058;-90
2023/01/21 01:54:00;;;;;;;37.88;22.13;;;;;;;;;;5092676;28;20127;-90
2023/01/21 01:56:28;;;;;;;33.75;21.27;;;;;;;;;;5092332;28;20056;-90
2023/01/21 01:58:55;;;;;;;47.80;27.20;;;;;;;;;;5092445;28;20047;-90
2023/01/21 02:01:25;;;;;;;40.33;24.15;;;;;;;;;;5092643;28;20109;-90
2023/01/21 02:03:58;;;;;;;43.63;24.63;;;;;;;;;;5092022;28;20136;-90
2023/01/21 02:06:25;;;;;;;56.53;33.22;;;;;;;;;;5093157;28;20492;-90
2023/01/21 02:08:54;;;;;;;51.33;25.20;;;;;;;;;;5093516;28;20106;-90
2023/01/21 02:11:24;;;;;;;47.50;26.88;;;;;;;;;;5092739;28;20135;-90
2023/01/21 02:13:52;;;;;;;53.75;27.65;;;;;;;;;;5092237;28;20051;-90
2023/01/21 02:16:38;;;;;;;53.42;25.42;;;;;;;;;;5091831;28;20052;-89
2023/01/21 02:19:31;;;;;;;47.80;25.80;;;;;;;;;;5093145;28;20507;-91
2023/01/21 02:21:58;;;;;;;43.45;25.73;;;;;;;;;;5092176;28;20044;-90
2023/01/21 02:24:58;;;;;;;48.83;26.60;;;;;;;;;;5093104;28;20044;-90
2023/01/21 02:27:34;;;;;;;51.10;24.92;;;;;;;;;;5069644;28;20058;-90
2023/01/21 02:30:04;;;;;;;49.85;25.60;;;;;;;;;;5092239;28;20507;-90
2023/01/21 02:32:35;;;;;;;44.70;24.88;;;;;;;;;;5092224;28;20048;-90
2023/01/21 02:35:14;;;;;;;45.45;24.52;;;;;;;;;;5092103;28;20059;-90
2023/01/21 02:37:51;;;;;;;41.72;25.02;;;;;;;;;;5094201;28;20051;-90
2023/01/21 02:40:27;;;;;;;41.17;24.92;;;;;;;;;;5096839;28;20428;-89
2023/01/21 02:42:58;;;;;;;44.92;23.60;;;;;;;;;;5096100;28;20052;-90
2023/01/21 02:45:39;;;;;;;50.38;27.88;;;;;;;;;;5095646;28;20055;-90
2023/01/21 02:48:09;;;;;;;53.45;26.92;;;;;;;;;;5095696;28;20052;-90
2023/01/21 02:50:45;;;;;;;48.47;26.13;;;;;;;;;;5095781;28;20082;-90
2023/01/21 02:53:29;;;;;;;50.95;27.92;;;;;;;;;;5095658;28;20084;-90
2023/01/21 02:56:02;;;;;;;50.85;28.17;;;;;;;;;;5095456;28;20058;-90
2023/01/21 02:58:32;;;;;;;47.10;24.40;;;;;;;;;;5095384;28;20048;-90
2023/01/21 03:01:11;;;;;;;54.45;26.85;;;;;;;;;;5095910;28;20143;-90
2023/01/21 03:03:57;;;;;;;49.70;26.85;;;;;;;;;;5095588;28;20048;-90
2023/01/21 03:06:29;;;;;;;47.42;25.27;;;;;;;;;;5095146;28;20123;-90
2023/01/21 03:08:59;;;;;;;45.45;24.95;;;;;;;;;;5094877;28;20052;-90
2023/01/21 03:11:26;;;;;;;48.65;25.25;;;;;;;;;;5095211;28;20054;-90
2023/01/21 03:16:57;;;;;;;47.75;25.83;;;;;;;;;;5095737;28;20052;-90
2023/01/21 03:19:31;;;;;;;47.17;25.33;;;;;;;;;;5094876;28;20054;-90
2023/01/21 03:22:00;;;;;;;50.53;27.02;;;;;;;;;;5096726;28;20445;-90
2023/01/21 03:24:28;;;;;;;48.22;26.00;;;;;;;;;;5095329;28;20079;-89
2023/01/21 03:26:58;;;;;;;53.85;27.08;;;;;;;;;;5096175;28;20062;-90
2023/01/21 03:29:27;;;;;;;53.60;26.48;;;;;;;;;;5094787;28;20148;-90
2023/01/21 03:31:57;;;;;;;54.45;27.67;;;;;;;;;;5094983;28;20136;-90
2023/01/21 03:34:27;;;;;;;53.03;28.25;;;;;;;;;;5094963;28;20149;-90
2023/01/21 03:36:57;;;;;;;55.08;27.33;;;;;;;;;;5094696;28;20058;-90
2023/01/21 03:39:30;;;;;;;53.92;26.50;;;;;;;;;;5094894;28;20538;-90
2023/01/21 03:41:58;;;;;;;51.63;26.73;;;;;;;;;;5095854;28;20055;-90
2023/01/21 03:44:26;;;;;;;55.10;27.27;;;;;;;;;;5094516;28;20515;-90
2023/01/21 03:47:01;;;;;;;51.58;27.60;;;;;;;;;;5094605;28;20101;-90
2023/01/21 03:49:32;;;;;;;53.13;26.23;;;;;;;;;;5093949;28;20055;-90
2023/01/21 03:52:00;;;;;;;56.72;27.20;;;;;;;;;;5094620;28;20052;-89
2023/01/21 03:54:27;;;;;;;58.72;27.05;;;;;;;;;;5095187;28;20048;-90
2023/01/21 03:56:55;;;;;;;54.70;26.85;;;;;;;;;;5094496;28;20140;-90
2023/01/21 03:59:25;;;;;;;50.90;26.13;;;;;;;;;;5095391;28;20048;-90
2023/01/21 04:01:52;;;;;;;51.67;27.05;;;;;;;;;;5094085;28;20052;-89
2023/01/21 04:04:19;;;;;;;52.60;26.80;;;;;;;;;;5094317;28;20052;-90
2023/01/21 04:06:46;;;;;;;49.10;25.73;;;;;;;;;;5095400;28;20048;-90
2023/01/21 04:09:13;;;;;;;48.35;25.60;;;;;;;;;;5094021;28;20059;-90
2023/01/21 04:11:41;;;;;;;45.45;24.33;;;;;;;;;;5094475;28;20096;-90
2023/01/21 04:14:08;;;;;;;50.85;24.70;;;;;;;;;;5099100;28;20098;-90
2023/01/21 04:16:35;;;;;;;47.92;24.50;;;;;;;;;;5093952;28;20512;-90
2023/01/21 04:19:02;;;;;;;46.38;23.85;;;;;;;;;;5094782;28;20084;-89
2023/01/21 04:21:30;;;;;;;58.78;24.42;;;;;;;;;;5094976;28;20052;-89
2023/01/21 04:23:57;;;;;;;54.92;25.75;;;;;;;;;;5094795;28;20044;-90
2023/01/21 04:26:24;;;;;;;46.22;23.50;;;;;;;;;;5093830;28;20492;-90
2023/01/21 04:28:51;;;;;;;50.58;24.00;;;;;;;;;;5094066;28;20495;-91
2023/01/21 04:31:19;;;;;;;48.40;24.73;;;;;;;;;;5093393;28;20439;-89
2023/01/21 04:33:49;;;;;;;50.42;24.58;;;;;;;;;;5093764;28;20075;-90
2023/01/21 04:36:16;;;;;;;46.65;24.27;;;;;;;;;;5093454;28;20135;-90
2023/01/21 04:38:43;;;;;;;43.00;21.88;;;;;;;;;;5094740;28;20047;-90
2023/01/21 04:41:10;;;;;;;46.38;23.48;;;;;;;;;;5093746;28;20044;-90
2023/01/21 04:43:38;;;;;;;50.88;24.17;;;;;;;;;;5094488;28;20050;-89
2023/01/21 04:46:05;;;;;;;49.95;23.70;;;;;;;;;;5093720;28;20052;-90
2023/01/21 04:48:32;;;;;;;45.55;22.42;;;;;;;;;;5093235;28;20116;-90
2023/01/21 04:51:00;;;;;;;46.13;22.35;;;;;;;;;;5093323;28;20096;-90
2023/01/21 04:53:27;;;;;;;49.25;22.92;;;;;;;;;;5093178;28;20048;-90
2023/01/21 04:55:54;;;;;;;46.95;22.40;;;;;;;;;;5093239;28;20092;-90
2023/01/21 04:58:21;;;;;;;42.17;22.27;;;;;;;;;;5093378;28;20472;-90
2023/01/21 05:00:49;;;;;;;49.25;22.60;;;;;;;;;;5092416;28;20058;-90
2023/01/21 05:03:16;;;;;;;44.15;21.83;;;;;;;;;;5093331;28;20407;-90
2023/01/21 05:05:43;;;;;;;45.53;22.42;;;;;;;;;;5092893;28;20058;-89
2023/01/21 05:08:10;;;;;;;44.97;21.95;;;;;;;;;;5094212;28;20454;-90
2023/01/21 05:10:38;;;;;;;45.20;23.80;;;;;;;;;;5093231;28;20052;-90
2023/01/21 05:13:05;;;;;;;43.63;23.30;;;;;;;;;;5093217;28;20048;-90
2023/01/21 05:15:32;;;;;;;48.28;24.58;;;;;;;;;;5093426;28;20092;-89
2023/01/21 05:17:59;;;;;;;54.55;24.00;;;;;;;;;;5093720;28;20062;-89
2023/01/21 05:20:27;;;;;;;48.83;23.98;;;;;;;;;;5093202;28;20058;-90
2023/01/21 05:22:54;;;;;;;48.78;23.55;;;;;;;;;;5092963;28;20048;-90
2023/01/21 05:25:21;;;;;;;50.78;24.27;;;;;;;;;;5092851;28;20510;-90
2023/01/21 05:27:52;;;;;;;51.95;25.60;;;;;;;;;;5093824;28;20055;-90
2023/01/21 05:30:20;;;;;;;47.70;24.30;;;;;;;;;;5092722;28;20126;-90
2023/01/21 05:32:51;;;;;;;45.20;24.92;;;;;;;;;;5093170;28;20127;-90
2023/01/21 05:35:23;;;;;;;46.63;23.15;;;;;;;;;;5092406;28;20126;-89
2023/01/21 05:37:50;;;;;;;48.30;24.27;;;;;;;;;;5092458;28;20060;-90
2023/01/21 05:40:18;;;;;;;50.80;24.40;;;;;;;;;;5093828;28;20182;-90
2023/01/21 05:42:46;;;;;;;50.13;25.90;;;;;;;;;;5092577;28;20550;-90
2023/01/21 05:45:13;;;;;;;55.70;27.58;;;;;;;;;;5092585;28;20044;-89
2023/01/21 05:47:40;;;;;;;59.17;29.00;;;;;;;;;;5093890;28;20078;-89
2023/01/21 05:50:08;;;;;;;62.03;31.50;;;;;;;;;;5092945;28;20091;-90
2023/01/21 05:52:36;;;;;;;64.57;35.47;;;;;;;;;;5092908;28;20056;-90
2023/01/21 05:55:03;;;;;;;86.45;48.90;;;;;;;;;;5092480;28;20378;-90
2023/01/21 05:57:31;;;;;;;70.28;34.30;;;;;;;;;;5092232;28;20137;-89
2023/01/21 05:59:58;;;;;;;58.45;31.63;;;;;;;;;;5092377;28;20055;-90
2023/01/21 06:02:26;;;;;;;101.10;56.95;;;;;;;;;;5092430;28;20048;-90
2023/01/21 06:04:53;;;;;;;60.08;27.90;;;;;;;;;;5092847;28;20041;-90
2023/01/21 06:07:21;;;;;;;63.88;29.13;;;;;;;;;;5092439;28;20048;-90
2023/01/21 06:09:48;;;;;;;66.80;29.63;;;;;;;;;;5092514;28;20055;-90
2023/01/21 06:12:16;;;;;;;65.88;34.05;;;;;;;;;;5093488;28;20449;-90
2023/01/21 06:14:43;;;;;;;69.95;31.77;;;;;;;;;;5096790;28;20515;-90
2023/01/21 06:17:10;;;;;;;62.65;30.90;;;;;;;;;;5096199;28;20052;-89
2023/01/21 06:19:37;;;;;;;65.47;30.35;;;;;;;;;;5096350;28;20040;-90
2023/01/21 06:22:05;;;;;;;64.93;32.00;;;;;;;;;;5097226;28;20499;-90
2023/01/21 06:24:32;;;;;;;68.40;31.73;;;;;;;;;;5096241;28;20079;-90
2023/01/21 06:26:59;;;;;;;70.47;33.03;;;;;;;;;;5097101;28;20062;-90
2023/01/21 06:29:26;;;;;;;66.13;30.75;;;;;;;;;;5096200;28;20047;-90
2023/01/21 06:31:54;;;;;;;71.75;30.95;;;;;;;;;;5096185;28;20513;-89
2023/01/21 06:34:21;;;;;;;64.57;30.25;;;;;;;;;;5096132;28;20438;-90
2023/01/21 06:36:48;;;;;;;64.18;29.25;;;;;;;;;;5095490;28;20063;-90
2023/01/21 06:39:15;;;;;;;57.58;28.35;;;;;;;;;;5095654;28;20048;-90
2023/01/21 06:41:43;;;;;;;60.13;26.98;;;;;;;;;;5096737;28;20059;-89
2023/01/21 06:44:10;;;;;;;61.55;27.55;;;;;;;;;;5096911;28;20048;-90
2023/01/21 06:46:37;;;;;;;56.05;26.20;;;;;;;;;;5095913;28;20377;-90
2023/01/21 06:49:11;;;;;;;51.75;26.10;;;;;;;;;;5095507;28;20071;-90
2023/01/21 06:51:42;;;;;;;54.92;25.02;;;;;;;;;;5095863;28;20059;-90
2023/01/21 06:54:12;;;;;;;52.60;26.45;;;;;;;;;;5095789;28;20116;-90
2023/01/21 06:56:42;;;;;;;54.42;25.35;;;;;;;;;;5095524;28;20048;-91
2023/01/21 06:59:09;;;;;;;46.78;23.88;;;;;;;;;;5095430;28;20127;-90
2023/01/21 07:01:36;;;;;;;49.63;23.73;;;;;;;;;;5095303;28;20499;-90
2023/01/21 07:04:04;;;;;;;49.63;23.92;;;;;;;;;;5095493;28;20472;-91
2023/01/21 07:06:31;;;;;;;48.60;24.58;;;;;;;;;;5095319;28;20575;-90
2023/01/21 07:08:58;;;;;;;52.40;24.70;;;;;;;;;;5096473;28;20087;-89
2023/01/21 07:11:25;;;;;;;53.08;24.60;;;;;;;;;;5096018;28;20488;-90
2023/01/21 07:13:52;;;;;;;58.20;24.75;;;;;;;;;;5095579;28;20059;-90
2023/01/21 07:16:20;;;;;;;52.08;24.98;;;;;;;;;;5095563;28;20056;-90
2023/01/21 07:18:47;;;;;;;59.38;25.55;;;;;;;;;;5095212;28;20097;-91
2023/01/21 07:21:14;;;;;;;57.58;25.27;;;;;;;;;;5095178;28;20044;-90
2023/01/21 07:23:42;;;;;;;61.60;26.50;;;;;;;;;;5094143;28;20510;-90
2023/01/21 07:26:09;;;;;;;63.08;26.65;;;;;;;;;;5095884;28;20055;-90
2023/01/21 07:28:36;;;;;;;64.15;28.83;;;;;;;;;;5095618;28;20050;-89
2023/01/21 07:31:03;;;;;;;70.10;30.73;;;;;;;;;;5095443;28;20051;-89
2023/01/21 07:33:31;;;;;;;68.07;28.58;;;;;;;;;;5094756;28;20047;-90
2023/01/21 07:35:58;;;;;;;64.20;29.30;;;;;;;;;;5094384;28;20044;-90
2023/01/21 07:38:25;;;;;;;69.45;30.08;;;;;;;;;;5095645;28;20051;-90
2023/01/21 07:40:52;;;;;;;64.22;26.17;;;;;;;;;;5094793;28;20044;-90
2023/01/21 07:43:19;;;;;;;59.17;24.13;;;;;;;;;;5094371;28;20059;-89
2023/01/21 07:45:47;;;;;;;54.88;23.60;;;;;;;;;;5094493;28;20076;-90
2023/01/21 07:48:14;;;;;;;62.30;24.92;;;;;;;;;;5095361;28;20500;-89
2023/01/21 07:50:41;;;;;;;62.05;24.88;;;;;;;;;;5095223;28;20058;-90
2023/01/21 07:53:09;;;;;;;61.65;23.33;;;;;;;;;;5095467;28;20055;-90
2023/01/21 07:55:37;;;;;;;50.97;22.40;;;;;;;;;;5094215;28;20556;-90
2023/01/21 07:58:04;;;;;;;57.22;23.67;;;;;;;;;;5094071;28;20515;-89
2023/01/21 08:00:31;;;;;;;59.13;22.05;;;;;;;;;;5094077;28;20044;-90
2023/01/21 08:02:58;;;;;;;58.55;21.02;;;;;;;;;;5094716;28;20052;-90
2023/01/21 08:05:26;;;;;;;56.80;22.33;;;;;;;;;;5094123;28;20090;-89
2023/01/21 08:07:56;;;;;;;45.13;20.05;;;;;;;;;;5094647;28;20052;-90
2023/01/21 08:10:23;;;;;;;54.25;21.13;;;;;;;;;;5093704;28;20510;-90
2023/01/21 08:12:50;;;;;;;53.00;18.05;;;;;;;;;;5094920;28;20484;-90
2023/01/21 08:15:18;;;;;;;42.20;16.83;;;;;;;;;;5093896;28;20052;-89
2023/01/21 08:17:47;;;;;;;38.40;16.08;;;;;;;;;;5094564;28;20113;-90
2023/01/21 08:20:14;;;;;;;43.42;16.30;;;;;;;;;;5093972;28;20054;-90
2023/01/21 08:22:41;;;;;;;37.55;15.95;;;;;;;;;;5093892;28;20052;-90
2023/01/21 08:25:09;;;;;;;41.75;16.20;;;;;;;;;;5093865;28;20056;-91
2023/01/21 08:27:36;;;;;;;40.10;18.00;;;;;;;;;;5093887;28;20510;-89
2023/01/21 08:30:04;;;;;;;35.25;15.15;;;;;;;;;;5093790;28;20044;-90
2023/01/21 08:32:31;;;;;;;40.13;18.92;;;;;;;;;;5094630;28;20126;-90
2023/01/21 08:34:58;;;;;;;29.27;13.73;;;;;;;;;;5094564;28;20131;-91
2023/01/21 08:37:25;;;;;;;28.30;13.73;;;;;;;;;;5095357;28;20055;-90
2023/01/21 08:39:54;;;;;;;37.38;16.23;;;;;;;;;;5097474;28;20048;-90
2023/01/21 08:42:22;;;;;;;35.13;14.93;;;;;;;;;;5096657;28;20135;-90
2023/01/21 08:44:50;;;;;;;36.15;16.77;;;;;;;;;;5098445;28;20052;-90
2023/01/21 08:47:17;;;;;;;33.55;15.25;;;;;;;;;;5080161;28;20127;-90
2023/01/21 08:49:44;;;;;;;30.45;14.70;;;;;;;;;;5096775;28;20130;-90
2023/01/21 08:52:12;;;;;;;28.50;14.65;;;;;;;;;;5098367;28;20097;-90
2023/01/21 08:54:40;;;;;;;38.58;17.67;;;;;;;;;;5097357;28;20043;-90
2023/01/21 08:57:08;;;;;;;39.60;18.33;;;;;;;;;;5097356;28;20484;-89
2023/01/21 08:59:39;;;;;;;27.60;13.57;;;;;;;;;;5097237;28;20051;-90
2023/01/21 09:02:11;;;;;;;31.52;15.00;;;;;;;;;;5097768;28;20089;-90
2023/01/21 09:04:38;;;;;;;25.52;13.65;;;;;;;;;;5097050;28;20105;-90
2023/01/21 09:07:06;;;;;;;34.95;15.27;;;;;;;;;;5094220;28;20062;-90
2023/01/21 09:09:33;;;;;;;92.47;16.17;;;;;;;;;;5092889;28;20135;-90
2023/01/21 09:12:01;;;;;;;34.75;16.00;;;;;;;;;;5093061;28;20044;-90
2023/01/21 09:14:29;;;;;;;31.55;13.40;;;;;;;;;;5093043;28;20522;-90
2023/01/21 09:16:57;;;;;;;24.70;12.05;;;;;;;;;;5092482;28;20420;-90
2023/01/21 09:19:24;;;;;;;49.58;26.40;;;;;;;;;;5092915;28;20084;-90
2023/01/21 09:21:53;;;;;;;40.58;17.50;;;;;;;;;;5092501;28;20047;-90
2023/01/21 09:24:20;;;;;;;30.00;13.93;;;;;;;;;;5093556;28;20063;-90
2023/01/21 09:26:47;;;;;;;42.13;15.38;;;;;;;;;;5092551;28;20503;-90
2023/01/21 09:29:14;;;;;;;34.83;16.75;;;;;;;;;;5091866;28;20492;-89
2023/01/21 09:31:41;;;;;;;38.15;12.57;;;;;;;;;;5093014;28;20413;-89
2023/01/21 09:34:09;;;;;;;29.00;15.30;;;;;;;;;;5091563;28;20197;-91
2023/01/21 09:36:37;;;;;;;32.63;18.23;;;;;;;;;;5092706;28;20434;-90
2023/01/21 09:39:04;;;;;;;28.23;15.18;;;;;;;;;;5092923;28;20044;-91
2023/01/21 09:41:39;;;;;;;24.27;12.48;;;;;;;;;;5092685;28;20056;-90
2023/01/21 09:44:12;;;;;;;23.80;11.52;;;;;;;;;;5092885;28;20044;-91
2023/01/21 09:46:51;;;;;;;27.75;14.13;;;;;;;;;;5095526;28;20420;-91
2023/01/21 09:49:22;;;;;;;62.20;36.30;;;;;;;;;;5098018;28;20056;-91
2023/01/21 09:51:49;;;;;;;31.73;15.93;;;;;;;;;;5099300;28;20142;-90
2023/01/21 09:54:21;;;;;;;21.55;12.43;;;;;;;;;;5099123;28;20052;-90
2023/01/21 09:56:56;;;;;;;29.80;16.15;;;;;;;;;;5099933;28;20055;-90
2023/01/21 09:59:37;;;;;;;21.67;12.48;;;;;;;;;;5098858;28;20071;-90
2023/01/21 10:02:09;;;;;;;39.97;18.73;;;;;;;;;;5099432;28;20495;-91
2023/01/21 10:04:44;;;;;;;50.35;21.00;;;;;;;;;;5099239;28;20071;-90
2023/01/21 10:07:15;;;;;;;49.65;26.55;;;;;;;;;;5098969;28;20098;-91
2023/01/21 10:09:49;;;;;;;65.57;31.92;;;;;;;;;;5099237;28;20439;-90
2023/01/21 10:12:16;;;;;;;44.45;21.60;;;;;;;;;;5100269;28;20059;-90
2023/01/21 10:14:50;;;;;;;30.50;15.60;;;;;;;;;;5099114;28;20499;-90
2023/01/21 10:17:41;;;;;;;83.93;38.15;;;;;;;;;;5098855;28;20056;-90
2023/01/21 10:20:11;;;;;;;93.50;42.97;;;;;;;;;;5099078;28;20503;-90
2023/01/21 10:22:41;;;;;;;42.80;21.73;;;;;;;;;;5099137;28;20055;-90
2023/01/21 10:25:18;;;;;;;39.00;20.40;;;;;;;;;;5099063;28;20094;-91
2023/01/21 10:27:45;;;;;;;42.63;25.67;;;;;;;;;;5099152;28;20101;-90
2023/01/21 10:30:20;;;;;;;28.05;17.20;;;;;;;;;;5099670;28;20054;-90
2023/01/21 10:32:49;;;;;;;25.13;16.15;;;;;;;;;;5099119;28;20484;-91
2023/01/21 10:35:17;;;;;;;25.98;16.60;;;;;;;;;;5098837;28;20050;-90
2023/01/21 10:37:54;;;;;;;21.67;12.90;;;;;;;;;;5098962;28;20446;-90
2023/01/21 10:40:41;;;;;;;23.08;12.05;;;;;;;;;;5098848;28;20075;-90
2023/01/21 10:43:08;;;;;;;24.42;15.25;;;;;;;;;;5099865;28;20048;-91
2023/01/21 10:45:43;;;;;;;28.67;18.83;;;;;;;;;;5100112;28;20044;-90
2023/01/21 10:48:13;;;;;;;23.60;12.73;;;;;;;;;;5099263;28;20073;-90
2023/01/21 10:50:59;;;;;;;27.30;15.18;;;;;;;;;;5098901;28;20074;-91
2023/01/21 10:53:35;;;;;;;28.65;17.85;;;;;;;;;;5098995;28;20044;-90
2023/01/21 10:56:11;;;;;;;27.10;18.30;;;;;;;;;;5098111;28;20085;-90
2023/01/21 10:59:11;;;;;;;34.92;18.98;;;;;;;;;;5097332;28;20052;-91
2023/01/21 11:01:40;;;;;;;26.63;15.85;;;;;;;;;;5052162;28;20404;-91
2023/01/21 11:04:13;;;;;;;39.58;26.33;;;;;;;;;;5096427;28;20040;-91
2023/01/21 11:06:45;;;;;;;30.42;18.00;;;;;;;;;;5096346;28;20051;-90
2023/01/21 11:09:13;;;;;;;24.35;15.30;;;;;;;;;;5096377;28;20051;-90
2023/01/21 11:11:41;;;;;;;30.17;18.60;;;;;;;;;;5095530;28;20043;-91
2023/01/21 11:14:09;;;;;;;31.13;18.08;;;;;;;;;;5095586;28;20052;-90
2023/01/21 11:16:37;;;;;;;151.45;79.90;;;;;;;;;;5095081;28;20052;-90
2023/01/21 11:19:06;;;;;;;154.65;77.03;;;;;;;;;;5096108;28;20504;-91
2023/01/21 11:21:33;;;;;;;137.90;72.78;;;;;;;;;;5094954;28;20129;-91
2023/01/21 11:24:02;;;;;;;59.70;32.42;;;;;;;;;;5095206;28;20173;-91
2023/01/21 11:26:29;;;;;;;41.33;21.00;;;;;;;;;;5094971;28;20090;-91
2023/01/21 11:29:13;;;;;;;66.80;32.20;;;;;;;;;;5095082;28;20044;-91
2023/01/21 11:31:41;;;;;;;103.68;51.00;;;;;;;;;;5095482;28;20051;-92
2023/01/21 11:34:11;;;;;;;33.83;18.83;;;;;;;;;;5095005;28;20078;-90
2023/01/21 11:36:52;;;;;;;45.75;27.90;;;;;;;;;;5096029;28;20568;-91
2023/01/21 11:39:22;;;;;;;23.90;14.43;;;;;;;;;;5095050;28;20051;-90
2023/01/21 11:41:57;;;;;;;54.58;32.05;;;;;;;;;;5094834;28;20044;-91
2023/01/21 11:44:24;;;;;;;83.13;50.65;;;;;;;;;;5091002;28;20076;-91
2023/01/21 11:46:52;;;;;;;53.83;34.58;;;;;;;;;;5094815;28;20048;-91
2023/01/21 11:49:24;;;;;;;69.35;57.78;;;;;;;;;;5094857;28;20062;-90
2023/01/21 11:52:05;;;;;;;34.35;21.95;;;;;;;;;;5094651;28;20048;-90
2023/01/21 11:54:37;;;;;;;24.02;14.88;;;;;;;;;;5094737;28;20044;-91
2023/01/21 11:57:05;;;;;;;25.58;15.57;;;;;;;;;;5094213;28;20062;-91
2023/01/21 11:59:34;;;;;;;26.40;15.25;;;;;;;;;;5095362;28;20040;-91
2023/01/21 12:02:07;;;;;;;27.25;14.85;;;;;;;;;;5095303;28;20047;-91
2023/01/21 12:04:35;;;;;;;26.40;16.27;;;;;;;;;;5095607;28;20516;-91
2023/01/21 12:07:04;;;;;;;30.58;18.77;;;;;;;;;;5094250;28;20082;-91
2023/01/21 12:09:31;;;;;;;26.65;14.82;;;;;;;;;;5093820;28;20052;-91
2023/01/21 12:12:10;;;;;;;25.17;15.05;;;;;;;;;;5093741;28;20054;-91
2023/01/21 12:14:50;;;;;;;25.30;14.63;;;;;;;;;;5094347;28;20143;-91
2023/01/21 12:17:21;;;;;;;27.77;14.45;;;;;;;;;;5093707;28;20074;-92
2023/01/21 12:19:56;;;;;;;29.02;15.27;;;;;;;;;;5094960;28;20055;-90
2023/01/21 12:22:34;;;;;;;28.60;17.10;;;;;;;;;;5093907;28;20067;-92
2023/01/21 12:25:21;;;;;;;22.48;13.27;;;;;;;;;;5094100;28;20044;-90
2023/01/21 12:27:54;;;;;;;28.02;15.70;;;;;;;;;;5093956;28;20087;-91
2023/01/21 12:30:21;;;;;;;;;;;;;;;;;;5094268;28;20040;-91
2023/01/21 12:32:52;;;;;;;25.40;13.75;;;;;;;;;;5093819;28;20315;-91
2023/01/21 12:35:22;;;;;;;24.00;13.23;;;;;;;;;;5093775;28;20059;-91
2023/01/21 12:37:53;;;;;;;24.30;14.45;;;;;;;;;;5093682;28;20507;-91
2023/01/21 12:40:38;;;;;;;24.90;14.55;;;;;;;;;;5095046;28;20048;-91
2023/01/21 12:43:12;;;;;;;23.70;14.32;;;;;;;;;;5093738;28;20047;-91
2023/01/21 12:45:43;;;;;;;21.65;12.73;;;;;;;;;;5093768;28;20052;-91
2023/01/21 12:48:20;;;;;;;24.73;14.93;;;;;;;;;;5093669;28;20044;-90
2023/01/21 12:50:51;;;;;;;23.95;14.73;;;;;;;;;;5093603;28;20059;-92
2023/01/21 12:53:27;;;;;;;24.88;14.15;;;;;;;;;;5093596;28;20043;-91
2023/01/21 12:56:12;;;;;;;25.52;14.43;;;;;;;;;;5093403;28;20059;-91
2023/01/21 12:58:45;;;;;;;20.15;12.68;;;;;;;;;;5093198;28;20052;-91
2023/01/21 13:01:18;;;;;;;22.60;13.57;;;;;;;;;;5093269;28;20066;-90
2023/01/21 13:03:53;;;;;;;26.67;13.50;;;;;;;;;;5093250;28;20054;-91
2023/01/21 13:06:24;;;;;;;26.13;14.25;;;;;;;;;;5093008;28;20135;-91
2023/01/21 13:09:27;;;;;;;22.55;13.32;;;;;;;;;;5093289;28;20131;-90
2023/01/21 13:11:57;;;;;;;26.35;13.63;;;;;;;;;;5093494;28;20044;-92
2023/01/21 13:14:24;;;;;;;25.05;14.10;;;;;;;;;;5093024;28;20052;-91
2023/01/21 13:17:03;;;;;;;23.88;13.48;;;;;;;;;;5093011;28;20058;-91
2023/01/21 13:19:30;;;;;;;26.35;14.52;;;;;;;;;;5093990;28;20105;-91
2023/01/21 13:22:05;;;;;;;20.42;13.10;;;;;;;;;;5092168;28;20043;-91
2023/01/21 13:24:52;;;;;;;25.45;14.52;;;;;;;;;;5093174;28;20051;-91
2023/01/21 13:27:28;;;;;;;21.20;12.68;;;;;;;;;;5092766;28;20051;-90
2023/01/21 13:30:02;;;;;;;24.45;14.95;;;;;;;;;;5092910;28;20052;-90
2023/01/21 13:32:29;;;;;;;;;;;;;;;;;;5094207;28;20087;-91
2023/01/21 13:35:18;;;;;;;25.13;14.15;;;;;;;;;;5092950;28;19927;-91
2023/01/21 13:37:54;;;;;;;26.23;16.45;;;;;;;;;;5092497;28;20471;-90
2023/01/21 13:40:21;;;;;;;20.75;12.88;;;;;;;;;;5093931;28;20048;-91
2023/01/21 13:42:55;;;;;;;22.98;14.57;;;;;;;;;;5093042;28;20048;-91
2023/01/21 13:45:22;;;;;;;22.60;14.05;;;;;;;;;;5092614;28;20496;-91
2023/01/21 13:48:10;;;;;;;23.80;13.95;;;;;;;;;;5092606;28;20074;-91
2023/01/21 13:50:48;;;;;;;24.27;14.18;;;;;;;;;;5093016;28;20463;-90
2023/01/21 13:53:34;;;;;;;24.05;14.40;;;;;;;;;;5093093;28;20115;-91
2023/01/21 13:56:17;;;;;;;24.50;13.90;;;;;;;;;;5092732;28;20048;-90
2023/01/21 13:58:53;;;;;;;22.63;14.63;;;;;;;;;;5092799;28;20101;-91
2023/01/21 14:01:35;;;;;;;26.27;13.85;;;;;;;;;;5092638;28;20063;-91
2023/01/21 14:04:09;;;;;;;22.75;14.50;;;;;;;;;;5092935;28;20055;-91
2023/01/21 14:06:44;;;;;;;22.80;14.57;;;;;;;;;;5093820;28;20044;-91
2023/01/21 14:09:30;;;;;;;20.48;14.13;;;;;;;;;;5092338;28;20060;-90
2023/01/21 14:12:16;;;;;;;20.10;13.70;;;;;;;;;;5093651;28;20405;-91
2023/01/21 14:14:56;;;;;;;22.20;14.10;;;;;;;;;;5092275;28;20048;-91
2023/01/21 14:17:31;;;;;;;19.63;13.52;;;;;;;;;;5092041;28;20056;-90
2023/01/21 14:20:08;;;;;;;28.58;14.93;;;;;;;;;;5092434;28;20094;-91
2023/01/21 14:22:45;;;;;;;21.52;13.60;;;;;;;;;;5093372;28;20059;-91
2023/01/21 14:25:12;;;;;;;23.67;15.48;;;;;;;;;;5092949;28;20048;-91
2023/01/21 14:27:47;;;;;;;21.98;13.13;;;;;;;;;;5092290;28;20519;-91
2023/01/21 14:30:14;;;;;;;23.40;14.98;;;;;;;;;;5093264;28;20075;-91
2023/01/21 14:32:48;;;;;;;24.98;15.68;;;;;;;;;;5092977;28;20048;-90
2023/01/21 14:35:35;;;;;;;21.83;14.90;;;;;;;;;;5096287;28;20056;-91
2023/01/21 14:38:21;;;;;;;21.50;14.02;;;;;;;;;;5095999;28;20063;-90
2023/01/21 14:40:49;;;;;;;23.95;13.77;;;;;;;;;;5096091;28;20044;-90